createdAt,value
2019-03-21T00:00:03.660Z,66.14
2019-03-21T00:10:03.381Z,66.10
2019-03-21T00:20:04.020Z,66.87
2019-03-21T00:30:03.277Z,66.55
2019-03-21T00:40:03.058Z,67.67
2019-03-21T00:50:02.776Z,67.43
2019-03-21T01:00:03.898Z,68.30
2019-03-21T01:10:03.046Z,69.58
2019-03-21T01:20:03.020Z,70.32
2019-03-21T01:30:03.389Z,71.12
2019-03-21T01:40:02.903Z,72.48
2019-03-21T01:50:02.806Z,73.98
2019-03-21T02:00:03.843Z,74.15
2019-03-21T02:10:02.730Z,75.25
2019-03-21T02:20:02.906Z,76.48
2019-03-21T02:30:03.182Z,77.40
2019-03-21T02:40:03.612Z,78.78
2019-03-21T02:50:03.296Z,76.98
2019-03-21T03:00:03.670Z,76.91
2019-03-21T03:10:03.072Z,76.21
2019-03-21T03:20:03.171Z,76.40
2019-03-21T03:30:04.012Z,77.05
2019-03-21T03:40:03.763Z,76.95
2019-03-21T03:50:03.360Z,77.34
2019-03-21T04:00:03.795Z,77.13
2019-03-21T04:10:03.256Z,77.68
2019-03-21T04:20:03.021Z,77.92
2019-03-21T04:30:03.644Z,77.88
2019-03-21T04:40:03.856Z,78.15
2019-03-21T04:50:03.348Z,79.47
2019-03-21T05:00:04.451Z,80.93
2019-03-21T05:10:03.302Z,77.90
2019-03-21T05:21:07.394Z,78
2019-03-21T05:30:03.589Z,74.58
2019-03-21T05:40:03.333Z,71.04
2019-03-21T05:50:03.042Z,68.98
2019-03-21T06:00:04.128Z,67.33
2019-03-21T06:10:02.928Z,65.64
2019-03-21T06:20:04.562Z,64.15
2019-03-21T06:30:03.140Z,63.52
2019-03-21T06:40:03.244Z,62.53
2019-03-21T06:50:03.014Z,62.52
2019-03-21T07:00:03.796Z,62.94
2019-03-21T07:10:02.812Z,58.99
2019-03-21T07:20:02.777Z,58.80
2019-03-21T07:30:03.775Z,59.04
2019-03-21T07:40:03.494Z,54.67
2019-03-21T07:50:02.935Z,53.02
2019-03-21T08:00:03.688Z,53.30
2019-03-21T08:10:02.713Z,50.12
2019-03-21T08:20:02.875Z,50.34
2019-03-21T08:30:03.505Z,50.51
2019-03-21T08:40:03.625Z,49.04
2019-03-21T08:50:02.747Z,43.08
2019-03-21T09:00:03.433Z,41.71
2019-03-21T09:10:02.591Z,40.71
2019-03-21T09:20:03.348Z,40.58
2019-03-21T09:30:09.321Z,39.51
2019-03-21T09:40:02.923Z,39.39
2019-03-21T09:50:03.447Z,39.02
2019-03-21T10:00:03.307Z,39.20
2019-03-21T10:10:03.112Z,38.87
2019-03-21T10:20:03.443Z,36.20
2019-03-21T10:30:03.016Z,36.27
2019-03-21T10:40:03.335Z,36.84
2019-03-21T10:50:02.969Z,38.20
2019-03-21T11:00:03.731Z,37.65
2019-03-21T11:10:02.829Z,34.38
2019-03-21T11:20:03.110Z,35.52
2019-03-21T11:30:15.388Z,38.83
2019-03-21T11:40:03.162Z,37.11
2019-03-21T11:50:02.635Z,36.68
2019-03-21T12:00:03.529Z,34.55
2019-03-21T12:10:02.787Z,35.39
2019-03-21T12:20:02.744Z,33.87
2019-03-21T12:30:04.022Z,34.35
2019-03-21T12:40:03.365Z,32.42
2019-03-21T12:50:02.841Z,33.39
2019-03-21T13:00:04.446Z,32.41
2019-03-21T13:10:03.033Z,31.37
2019-03-21T13:20:03.651Z,32.41
2019-03-21T13:30:04.213Z,31.81
2019-03-21T13:40:03.058Z,32.82
2019-03-21T13:50:03.921Z,32.15
2019-03-21T14:00:04.262Z,32.91
2019-03-21T14:10:03.101Z,32.47
2019-03-21T14:20:03.174Z,30.36
2019-03-21T14:30:03.728Z,31.34
2019-03-21T14:40:03.010Z,30.08
2019-03-21T14:50:02.898Z,30.64
2019-03-21T15:00:03.971Z,29.53
2019-03-21T15:10:03.293Z,29.57
2019-03-21T15:20:03.302Z,29.45
2019-03-21T15:30:03.826Z,28.09
2019-03-21T15:40:03.520Z,28.00
2019-03-21T15:50:03.180Z,28.63
2019-03-21T16:00:03.927Z,28.23
2019-03-21T16:10:02.466Z,28.25
2019-03-21T16:20:03.642Z,29.53
2019-03-21T16:30:04.317Z,31.69
2019-03-21T16:40:02.526Z,33.96
2019-03-21T16:50:03.410Z,34.52
2019-03-21T17:00:03.285Z,35.65
2019-03-21T17:10:03.163Z,36.51
2019-03-21T17:20:04.216Z,38.32
2019-03-21T17:30:03.601Z,39.49
2019-03-21T17:40:02.472Z,40.38
2019-03-21T17:50:03.311Z,41.39
2019-03-21T18:00:03.103Z,42.09
2019-03-21T18:10:02.899Z,42.43
2019-03-21T18:20:02.898Z,41.52
2019-03-21T18:30:03.732Z,43.23
2019-03-21T18:40:03.308Z,43.23
2019-03-21T18:50:03.414Z,43.41
2019-03-21T19:00:03.570Z,45.28
2019-03-21T19:10:02.491Z,44.85
2019-03-21T19:20:02.893Z,45.47
2019-03-21T19:30:06.226Z,45.08
2019-03-21T19:40:03.715Z,43.96
2019-03-21T19:50:02.601Z,44.02
2019-03-21T20:00:04.828Z,45.20
2019-03-21T20:10:08.226Z,47.78
2019-03-21T20:20:03.257Z,48.62
2019-03-21T20:30:03.557Z,50.48
2019-03-21T20:40:03.971Z,48.20
2019-03-21T20:50:02.909Z,49.11
2019-03-21T21:00:03.619Z,48.90
2019-03-21T21:10:08.090Z,49.36
2019-03-21T21:20:03.073Z,50.72
2019-03-21T21:30:03.991Z,51.47
2019-03-21T21:40:02.717Z,53.25
2019-03-21T21:50:02.977Z,58.56
2019-03-21T22:00:04.014Z,61.84
2019-03-21T22:10:03.229Z,58.38
2019-03-21T22:20:03.137Z,60.61
2019-03-21T22:30:05.180Z,56.11
2019-03-21T22:40:02.894Z,55.74
2019-03-21T22:50:03.398Z,56.08
2019-03-21T23:00:03.440Z,61.78
2019-03-21T23:10:02.982Z,62.61
2019-03-21T23:20:02.988Z,62.93
2019-03-21T23:30:03.708Z,63.02
2019-03-21T23:40:02.507Z,61.98
2019-03-21T23:50:03.564Z,63.44
